Carlsbad Caverns National Pa, New Mexico
Current Conditions -  °F | °C
As of 3:53 PM on Thursday 27 Nov 2014 (Local Time) from KCNM Reporting Station
Clear Clear  
Wind Chill: 60°   Ceiling: Unl
Heat Index: 60°   Visibility: 10mi
Dew Point: 30°   Wind: 12mph
Humidity: 32%   Direction: 160°SSE
Pressure: 30.28"   Gusts: NA
Location:  32.3187°N, 104.429°W
Report Text: KCNM 272253Z AUTO 16010KT 10SM CLR 16/M01 A3028 RMK AO2 SLP236 T01561011
Loading
Personal Weather Stations






























Interactive Weather Map New forecast layout! Learn more

10-Day Weather Forecast

Advertisements
Track Severe Weather on mobile